Time;durP1;ratioP1;P1;durP2;ratioP2;P2;SDS_P1;SDS_P2;PMS_P1;PMS_P2;Temp;Humidity;BMP_temperature;BMP_pressure;BME280_temperature;BME280_humidity;BME280_pressure;Samples;Min_cycle;Max_cycle;Signal;HPM_P1;HPM_P2
2022/01/29 00:00:33;;;;;;;57.75;47.25;;;-5.50;97.80;-6.20;97208.00;;;;5061387;27;87376;-57
2022/01/29 00:02:59;;;;;;;55.10;46.67;;;-5.50;97.80;-6.20;97198.00;;;;5050213;27;87557;-57
2022/01/29 00:05:25;;;;;;;56.75;47.92;;;-5.50;97.80;-6.20;97189.00;;;;5062618;27;86459;-57
2022/01/29 00:07:52;;;;;;;57.55;46.65;;;-5.50;97.70;-6.30;97193.00;;;;5062141;27;87255;-58
2022/01/29 00:10:18;;;;;;;61.33;47.13;;;-5.50;97.80;-6.30;97196.00;;;;5053664;27;87644;-55
2022/01/29 00:12:44;;;;;;;56.90;47.42;;;-5.60;97.80;-6.30;97191.00;;;;5058931;27;88044;-56
2022/01/29 00:15:11;;;;;;;54.80;44.33;;;-5.60;97.80;-6.30;97189.00;;;;5061515;27;87672;-55
2022/01/29 00:17:38;;;;;;;57.83;47.67;;;-5.60;97.80;-6.30;97199.00;;;;5061592;27;87640;-56
2022/01/29 00:20:07;;;;;;;57.17;46.17;;;-5.60;97.80;-6.30;97177.00;;;;5061802;27;87308;-58
2022/01/29 00:22:34;;;;;;;53.58;44.65;;;-5.60;97.80;-6.30;97187.00;;;;5062126;27;86893;-58
2022/01/29 00:25:00;;;;;;;56.40;46.15;;;-5.60;97.80;-6.30;97190.00;;;;5061067;27;86993;-58
2022/01/29 00:27:29;;;;;;;58.65;47.33;;;-5.60;97.80;-6.30;97182.00;;;;5051278;27;89048;-58
2022/01/29 00:29:56;;;;;;;56.35;45.97;;;-5.60;98.20;-6.30;97196.00;;;;5039694;27;87308;-58
2022/01/29 00:32:23;;;;;;;58.35;45.40;;;-5.60;97.80;-6.30;97178.00;;;;5061833;27;86860;-58
2022/01/29 00:34:49;;;;;;;53.78;44.65;;;-5.60;97.80;-6.30;97173.00;;;;5058899;27;86984;-58
2022/01/29 00:37:15;;;;;;;56.67;45.70;;;-5.60;97.80;-6.30;97183.00;;;;5048707;27;88671;-58
2022/01/29 00:39:42;;;;;;;54.70;45.15;;;-5.60;97.70;-6.40;97183.00;;;;5060800;27;88266;-58
2022/01/29 00:42:08;;;;;;;52.92;44.40;;;-5.70;97.70;-6.40;97179.00;;;;5050415;27;87502;-58
2022/01/29 00:44:34;;;;;;;55.92;45.45;;;-5.70;97.70;-6.40;97188.00;;;;5067689;27;88356;-58
2022/01/29 00:47:00;;;;;;;55.80;44.20;;;-5.70;97.80;-6.40;97176.00;;;;5060424;27;88243;-59
2022/01/29 00:49:26;;;;;;;56.78;44.28;;;-5.70;97.70;-6.40;97182.00;;;;5060961;27;87838;-58
2022/01/29 00:51:52;;;;;;;57.40;45.67;;;-5.60;97.80;-6.40;97186.00;;;;5061446;27;87136;-58
2022/01/29 00:54:18;;;;;;;59.42;45.80;;;-5.70;97.70;-6.40;97182.00;;;;5061582;27;86235;-59
2022/01/29 00:56:45;;;;;;;54.13;44.55;;;-5.70;97.80;-6.40;97185.00;;;;5060720;27;88673;-58
2022/01/29 00:59:11;;;;;;;53.72;45.13;;;-5.70;97.70;-6.40;97191.00;;;;5061390;27;87412;-57
2022/01/29 01:01:37;;;;;;;57.40;44.70;;;-5.70;97.70;-6.40;97189.00;;;;5060768;27;88224;-59
2022/01/29 01:04:03;;;;;;;53.90;42.00;;;-5.70;97.80;-6.40;97178.00;;;;5060943;27;87429;-59
2022/01/29 01:06:29;;;;;;;51.65;44.08;;;-5.70;98.10;-6.40;97183.00;;;;5042512;27;87707;-59
2022/01/29 01:08:55;;;;;;;54.13;45.13;;;-5.80;97.80;-6.50;97189.00;;;;5056905;27;88559;-60
2022/01/29 01:11:22;;;;;;;54.55;45.03;;;-5.70;97.90;-6.40;97186.00;;;;5056621;27;87107;-60
2022/01/29 01:13:48;;;;;;;53.42;45.10;;;-5.80;97.80;-6.40;97186.00;;;;5060747;27;87394;-61
2022/01/29 01:16:14;;;;;;;53.72;42.85;;;-5.70;97.80;-6.40;97190.00;;;;5059639;27;88729;-60
2022/01/29 01:18:40;;;;;;;52.88;44.75;;;-5.70;97.80;-6.40;97192.00;;;;5061016;27;88539;-60
2022/01/29 01:21:06;;;;;;;54.53;44.63;;;-5.70;97.70;-6.40;97180.00;;;;5050244;27;87009;-60
2022/01/29 01:23:34;;;;;;;56.22;44.47;;;-5.80;98.00;-6.50;97187.00;;;;5049367;27;87389;-59
2022/01/29 01:26:02;;;;;;;54.88;44.30;;;-5.80;97.70;-6.50;97186.00;;;;5059539;27;89030;-59
2022/01/29 01:28:28;;;;;;;50.25;44.50;;;-5.70;97.80;-6.40;97185.00;;;;5058164;27;88187;-59
2022/01/29 01:30:54;;;;;;;55.65;45.22;;;-5.80;97.80;-6.50;97188.00;;;;5059837;27;86943;-60
2022/01/29 01:33:20;;;;;;;50.75;43.08;;;-5.80;97.70;-6.50;97192.00;;;;5060830;27;86973;-60
2022/01/29 01:35:51;;;;;;;52.65;44.40;;;-5.80;97.80;-6.50;97184.00;;;;5060442;27;87814;-60
2022/01/29 01:40:49;;;;;;;55.22;46.20;;;-5.70;97.80;-6.40;97191.00;;;;5060196;27;87794;-61
2022/01/29 01:43:15;;;;;;;52.42;43.58;;;-5.80;97.70;-6.50;97190.00;;;;5061352;27;87373;-60
2022/01/29 01:45:42;;;;;;;55.97;45.63;;;-5.80;97.80;-6.50;97186.00;;;;5055687;27;88649;-60
2022/01/29 01:48:09;;;;;;;52.53;43.47;;;-5.80;97.80;-6.50;97187.00;;;;5023144;27;87650;-60
2022/01/29 01:50:36;;;;;;;56.58;45.47;;;-5.70;97.80;-6.50;97187.00;;;;5053722;27;87989;-60
2022/01/29 01:53:04;;;;;;;51.45;42.83;;;-5.80;97.70;-6.50;97189.00;;;;5060570;27;87025;-60
2022/01/29 01:55:31;;;;;;;53.83;44.63;;;-5.80;97.70;-6.40;97179.00;;;;5060207;27;88423;-59
2022/01/29 01:57:58;;;;;;;54.03;43.85;;;-5.70;97.80;-6.40;97178.00;;;;5048531;27;88482;-60
2022/01/29 02:00:26;;;;;;;51.20;44.45;;;-5.70;97.80;-6.40;97186.00;;;;5053301;27;87095;-60
2022/01/29 02:02:53;;;;;;;53.75;44.22;;;-5.70;97.80;-6.40;97177.00;;;;5049749;27;87022;-61
2022/01/29 02:05:19;;;;;;;51.22;44.33;;;-5.70;97.70;-6.40;97184.00;;;;5060693;27;88322;-60
2022/01/29 02:07:46;;;;;;;54.53;44.33;;;-5.70;97.70;-6.40;97193.00;;;;5047095;27;88702;-60
2022/01/29 02:10:13;;;;;;;57.53;46.67;;;-5.80;97.70;-6.40;97196.00;;;;5058514;27;87970;-60
2022/01/29 02:12:52;;;;;;;55.17;45.80;;;-5.70;97.80;-6.40;97193.00;;;;5058427;27;87692;-60
2022/01/29 02:15:21;;;;;;;56.45;46.20;;;-5.70;97.80;-6.40;97187.00;;;;5050626;27;90224;-60
2022/01/29 02:17:49;;;;;;;53.63;44.08;;;-5.70;97.70;-6.40;97184.00;;;;5061084;27;88419;-60
2022/01/29 02:20:22;;;;;;;52.10;44.78;;;-5.70;97.70;-6.40;97180.00;;;;5063581;27;86956;-60
2022/01/29 02:22:49;;;;;;;51.35;44.75;;;-5.70;97.70;-6.40;97173.00;;;;5047635;27;87301;-61
2022/01/29 02:25:36;;;;;;;56.30;45.42;;;-5.70;97.70;-6.40;97181.00;;;;5062821;27;87039;-60
2022/01/29 02:28:12;;;;;;;56.60;45.05;;;-5.70;97.70;-6.40;97178.00;;;;5053062;27;87329;-61
2022/01/29 02:30:42;;;;;;;51.00;42.47;;;-5.70;97.70;-6.40;97183.00;;;;5063853;27;87272;-60
2022/01/29 02:33:12;;;;;;;54.05;45.70;;;-5.70;97.70;-6.40;97180.00;;;;5064657;27;86591;-60
2022/01/29 02:35:41;;;;;;;50.03;42.17;;;-5.70;97.70;-6.40;97176.00;;;;5062801;27;87672;-60
2022/01/29 02:38:13;;;;;;;53.03;43.95;;;-5.70;97.60;-6.40;97186.00;;;;5060483;27;88587;-60
2022/01/29 02:40:47;;;;;;;;;;;-5.60;97.60;-6.40;97186.00;;;;5063769;27;88114;-60
2022/01/29 02:43:27;;;;;;;56.90;44.25;;;-5.60;97.50;-6.40;97185.00;;;;5063024;27;87647;-60
2022/01/29 02:45:55;;;;;;;53.27;44.40;;;-5.70;97.50;-6.40;97180.00;;;;5058517;27;88645;-60
2022/01/29 02:48:23;;;;;;;53.83;43.63;;;-5.70;97.60;-6.40;97177.00;;;;5063375;27;87511;-60
2022/01/29 02:50:50;;;;;;;54.92;44.78;;;-5.60;97.70;-6.40;97178.00;;;;5063377;27;87040;-60
2022/01/29 02:53:17;;;;;;;54.40;45.05;;;-5.70;97.60;-6.40;97183.00;;;;5049650;27;88194;-60
2022/01/29 02:55:43;;;;;;;48.38;42.05;;;-5.60;97.70;-6.30;97191.00;;;;5062901;27;89144;-60
2022/01/29 02:58:09;;;;;;;54.78;44.97;;;-5.60;97.70;-6.40;97186.00;;;;5063750;27;87697;-60
2022/01/29 03:00:36;;;;;;;57.58;46.60;;;-5.60;97.70;-6.30;97187.00;;;;5062593;27;86900;-61
2022/01/29 03:03:02;;;;;;;50.70;43.92;;;-5.60;97.70;-6.30;97191.00;;;;5025495;27;90197;-61
2022/01/29 03:05:28;;;;;;;53.17;43.13;;;-5.60;97.60;-6.30;97191.00;;;;5066651;27;89549;-59
2022/01/29 03:07:54;;;;;;;49.63;42.13;;;-5.60;97.60;-6.30;97200.00;;;;5056476;27;89206;-60
2022/01/29 03:10:22;;;;;;;54.83;43.25;;;-5.60;97.50;-6.30;97191.00;;;;5061928;27;87229;-61
2022/01/29 03:12:49;;;;;;;53.30;42.90;;;-5.60;97.50;-6.30;97184.00;;;;5061583;27;87457;-60
2022/01/29 03:15:15;;;;;;;53.20;42.92;;;-5.60;97.50;-6.30;97207.00;;;;5046201;27;87561;-60
2022/01/29 03:17:42;;;;;;;58.08;44.78;;;-5.60;97.50;-6.30;97200.00;;;;5062270;27;88286;-60
2022/01/29 03:20:10;;;;;;;51.83;44.28;;;-5.60;97.60;-6.30;97194.00;;;;5052773;27;87069;-61
2022/01/29 03:22:37;;;;;;;50.22;42.97;;;-5.60;97.60;-6.30;97201.00;;;;5045429;27;86270;-60
2022/01/29 03:25:06;;;;;;;56.08;44.53;;;-5.60;97.50;-6.30;97195.00;;;;5054838;27;89035;-61
2022/01/29 03:27:32;;;;;;;55.72;44.97;;;-5.60;97.50;-6.30;97191.00;;;;5051142;27;87403;-60
2022/01/29 03:29:58;;;;;;;51.53;43.08;;;-5.60;97.60;-6.30;97195.00;;;;5061572;27;88239;-60
2022/01/29 03:32:24;;;;;;;55.15;45.55;;;-5.60;97.60;-6.30;97206.00;;;;5063466;27;87348;-60
2022/01/29 03:34:50;;;;;;;50.67;41.45;;;-5.50;97.70;-6.30;97206.00;;;;5062608;27;88490;-60
2022/01/29 03:37:17;;;;;;;48.80;41.85;;;-5.60;97.60;-6.30;97207.00;;;;5062873;27;87349;-60
2022/01/29 03:39:44;;;;;;;50.53;42.45;;;-5.60;97.50;-6.20;97197.00;;;;5070195;27;86921;-60
2022/01/29 03:42:13;;;;;;;50.92;41.58;;;-5.50;97.50;-6.20;97203.00;;;;5062208;27;87046;-60
2022/01/29 03:44:39;;;;;;;50.67;41.00;;;-5.50;97.50;-6.20;97208.00;;;;5062715;27;87738;-61
2022/01/29 03:47:06;;;;;;;48.17;41.75;;;-5.50;97.40;-6.20;97209.00;;;;5061873;27;87832;-61
2022/01/29 03:49:32;;;;;;;54.15;42.75;;;-5.50;97.40;-6.20;97202.00;;;;5061923;27;87709;-60
2022/01/29 03:51:58;;;;;;;55.78;43.67;;;-5.50;97.30;-6.20;97200.00;;;;5062388;27;87315;-60
2022/01/29 03:54:24;;;;;;;54.15;43.13;;;-5.50;97.40;-6.20;97202.00;;;;5061557;27;90814;-60
2022/01/29 03:56:51;;;;;;;51.70;43.90;;;-5.50;97.50;-6.20;97196.00;;;;5062054;27;88223;-60
2022/01/29 03:59:17;;;;;;;52.72;43.25;;;-5.50;97.50;-6.10;97202.00;;;;5031775;27;87063;-60
2022/01/29 04:01:43;;;;;;;51.30;42.65;;;-5.50;97.50;-6.20;97194.00;;;;5062316;27;87067;-60
2022/01/29 04:04:09;;;;;;;58.53;44.83;;;-5.50;97.40;-6.20;97198.00;;;;5047760;27;87814;-60
2022/01/29 04:06:35;;;;;;;52.40;43.92;;;-5.50;97.40;-6.20;97190.00;;;;5058496;27;87686;-60
2022/01/29 04:09:05;;;;;;;57.55;44.53;;;-5.50;97.50;-6.20;97200.00;;;;5056768;27;87771;-60
2022/01/29 04:11:34;;;;;;;55.33;44.40;;;-5.50;97.60;-6.20;97202.00;;;;5050924;27;86207;-60
2022/01/29 04:14:00;;;;;;;57.13;45.13;;;-5.50;97.60;-6.20;97198.00;;;;5054246;27;88938;-60
2022/01/29 04:16:26;;;;;;;57.75;44.90;;;-5.50;97.90;-6.20;97196.00;;;;5057127;27;87477;-60
2022/01/29 04:18:53;;;;;;;56.95;45.03;;;-5.50;97.60;-6.20;97204.00;;;;5053106;27;88626;-61
2022/01/29 04:21:19;;;;;;;52.88;44.28;;;-5.50;97.60;-6.10;97210.00;;;;5048918;27;87537;-60
2022/01/29 04:23:45;;;;;;;55.65;45.65;;;-5.40;97.60;-6.10;97217.00;;;;5061844;27;87739;-57
2022/01/29 04:26:11;;;;;;;55.17;44.53;;;-5.50;97.60;-6.10;97207.00;;;;5060729;27;87316;-59
2022/01/29 04:28:41;;;;;;;56.53;45.58;;;-5.40;97.60;-6.10;97212.00;;;;5061048;27;87376;-58
2022/01/29 04:31:13;;;;;;;55.33;44.45;;;-5.40;97.60;-6.10;97216.00;;;;5062393;27;87347;-59
2022/01/29 04:33:40;;;;;;;55.10;46.05;;;-5.40;97.50;-6.10;97212.00;;;;5062239;27;87849;-58
2022/01/29 04:36:06;;;;;;;55.28;46.72;;;-5.40;97.60;-6.10;97216.00;;;;5061703;27;87851;-58
2022/01/29 04:38:33;;;;;;;52.22;43.22;;;-5.40;97.60;-6.00;97216.00;;;;5055165;27;87165;-59
2022/01/29 04:41:04;;;;;;;58.85;45.97;;;-5.40;97.50;-6.10;97218.00;;;;5054398;27;87911;-59
2022/01/29 04:43:35;;;;;;;54.20;44.15;;;-5.40;97.40;-6.10;97199.00;;;;5060872;27;90018;-59
2022/01/29 04:46:02;;;;;;;;;;;-5.40;97.40;-6.10;97208.00;;;;5049199;27;87281;-58
2022/01/29 04:48:29;;;;;;;61.78;47.88;;;-5.40;97.50;-6.10;97216.00;;;;5051111;27;87033;-59
2022/01/29 04:50:55;;;;;;;54.55;45.63;;;-5.30;97.50;-6.00;97205.00;;;;5061285;27;87157;-56
2022/01/29 04:53:21;;;;;;;55.00;47.33;;;-5.30;97.60;-6.00;97207.00;;;;5031979;27;90454;-59
2022/01/29 04:55:47;;;;;;;57.53;47.05;;;-5.30;97.60;-6.00;97216.00;;;;5050708;27;88026;-59
2022/01/29 04:58:14;;;;;;;58.65;47.22;;;-5.30;97.60;-6.00;97202.00;;;;5061866;27;87122;-58
2022/01/29 05:00:40;;;;;;;54.28;47.58;;;-5.30;97.60;-6.00;97212.00;;;;5061858;27;86359;-59
2022/01/29 05:03:12;;;;;;;56.33;47.30;;;-5.40;97.60;-6.00;97219.00;;;;5060478;27;89370;-59
2022/01/29 05:05:41;;;;;;;59.67;47.47;;;-5.30;97.60;-6.00;97220.00;;;;5029350;27;88069;-57
2022/01/29 05:08:07;;;;;;;56.58;47.33;;;-5.30;97.60;-6.00;97224.00;;;;5031728;27;88538;-58
2022/01/29 05:10:35;;;;;;;59.35;46.42;;;-5.30;97.60;-6.00;97228.00;;;;5057012;27;88089;-59
2022/01/29 05:13:06;;;;;;;62.38;49.55;;;-5.20;97.50;-6.00;97212.00;;;;5059320;27;89599;-58
2022/01/29 05:29:10;;;;;;;62.08;49.72;;;-5.30;97.60;-6.00;97212.00;;;;5060458;27;87285;-57
2022/01/29 05:31:37;;;;;;;61.00;49.90;;;-5.30;97.60;-6.10;97218.00;;;;5060846;27;87018;-57
2022/01/29 05:34:04;;;;;;;62.75;51.17;;;-5.40;97.60;-6.10;97219.00;;;;5042210;27;88805;-56
2022/01/29 05:36:31;;;;;;;62.58;49.05;;;-5.40;97.60;-6.10;97212.00;;;;5060526;27;89685;-58
2022/01/29 05:38:58;;;;;;;60.92;50.60;;;-5.40;97.60;-6.10;97219.00;;;;5060153;27;87519;-56
2022/01/29 05:41:24;;;;;;;64.05;51.55;;;-5.40;97.60;-6.10;97229.00;;;;5060249;27;87078;-56
2022/01/29 05:43:50;;;;;;;64.00;52.08;;;-5.40;97.70;-6.10;97227.00;;;;5071929;27;88647;-62
2022/01/29 05:46:17;;;;;;;65.25;51.67;;;-5.40;97.80;-6.10;97233.00;;;;5054494;27;87617;-57
2022/01/29 05:48:44;;;;;;;61.97;51.38;;;-5.40;97.80;-6.10;97240.00;;;;5056219;27;87221;-58
2022/01/29 05:51:10;;;;;;;62.35;51.28;;;-5.40;97.80;-6.10;97236.00;;;;5060694;27;86700;-58
2022/01/29 05:53:37;;;;;;;59.35;50.38;;;-5.40;97.70;-6.10;97233.00;;;;5059595;27;88507;-58
2022/01/29 05:56:03;;;;;;;63.45;51.75;;;-5.40;97.70;-6.10;97238.00;;;;5059399;27;88614;-59
2022/01/29 05:58:30;;;;;;;65.35;52.85;;;-5.40;97.80;-6.10;97241.00;;;;5060087;27;88232;-59
2022/01/29 06:00:56;;;;;;;64.88;52.42;;;-5.40;97.70;-6.10;97244.00;;;;5043308;27;87108;-57
2022/01/29 06:03:22;;;;;;;59.22;49.83;;;-5.40;97.60;-6.10;97243.00;;;;5059001;27;88696;-58
2022/01/29 06:05:49;;;;;;;62.55;51.30;;;-5.40;97.70;-6.20;97235.00;;;;5046143;27;87460;-57
2022/01/29 06:08:15;;;;;;;60.00;51.35;;;-5.40;97.70;-6.10;97248.00;;;;5029993;27;87543;-58
2022/01/29 06:10:41;;;;;;;69.70;53.25;;;-5.40;97.70;-6.10;97244.00;;;;5059480;27;87498;-57
2022/01/29 06:13:13;;;;;;;65.75;52.67;;;-5.40;97.60;-6.10;97244.00;;;;5059226;27;87521;-58
2022/01/29 06:15:51;;;;;;;60.95;50.88;;;-5.40;97.50;-6.10;97241.00;;;;5060167;27;87469;-58
2022/01/29 06:18:25;;;;;;;67.10;52.85;;;-5.40;97.40;-6.10;97243.00;;;;5059496;27;86979;-59
2022/01/29 06:20:57;;;;;;;62.38;50.10;;;-5.30;97.50;-6.10;97245.00;;;;5052015;27;87355;-59
2022/01/29 06:23:30;;;;;;;63.78;52.03;;;-5.40;97.40;-6.10;97256.00;;;;5059539;27;89094;-58
2022/01/29 06:25:58;;;;;;;58.08;49.20;;;-5.40;97.40;-6.10;97254.00;;;;5058923;27;88236;-58
2022/01/29 06:28:25;;;;;;;58.40;48.97;;;-5.40;97.40;-6.00;97256.00;;;;5062300;27;87533;-58
2022/01/29 06:30:51;;;;;;;58.70;48.35;;;-5.30;97.30;-6.00;97263.00;;;;5058991;27;87301;-58
2022/01/29 06:33:17;;;;;;;61.95;50.80;;;-5.30;97.30;-6.00;97262.00;;;;5059173;27;88612;-59
2022/01/29 06:35:44;;;;;;;60.45;50.80;;;-5.30;97.30;-6.00;97270.00;;;;5059286;27;88003;-59
2022/01/29 06:38:14;;;;;;;63.67;49.97;;;-5.30;97.20;-6.00;97258.00;;;;5058832;27;87381;-60
2022/01/29 06:40:42;;;;;;;65.45;49.95;;;-5.20;97.10;-5.90;97264.00;;;;5058001;27;86464;-59
2022/01/29 06:43:09;;;;;;;59.65;49.10;;;-5.20;97.00;-5.90;97268.00;;;;5050193;27;87863;-59
2022/01/29 06:45:38;;;;;;;63.30;48.30;;;-5.20;97.00;-5.90;97262.00;;;;5059280;27;88503;-59
2022/01/29 06:48:05;;;;;;;58.28;47.53;;;-5.20;96.90;-5.90;97263.00;;;;5057935;27;88005;-59
2022/01/29 06:50:32;;;;;;;63.22;49.53;;;-5.20;96.90;-5.80;97260.00;;;;5059089;27;87148;-58
2022/01/29 06:52:58;;;;;;;60.08;49.70;;;-5.10;96.90;-5.70;97274.00;;;;5058296;27;89189;-59
2022/01/29 06:55:25;;;;;;;57.60;47.33;;;-5.10;96.90;-5.70;97263.00;;;;5047080;27;87677;-59
2022/01/29 06:57:51;;;;;;;61.58;48.65;;;-5.00;96.80;-5.70;97269.00;;;;5058757;27;87009;-59
2022/01/29 07:00:17;;;;;;;63.47;48.85;;;-5.00;96.50;-5.70;97264.00;;;;5059430;27;87382;-59
2022/01/29 07:02:44;;;;;;;61.78;48.13;;;-5.00;96.30;-5.70;97284.00;;;;5058219;27;87771;-60
2022/01/29 07:05:12;;;;;;;68.93;51.00;;;-5.00;96.40;-5.70;97264.00;;;;5061322;27;87405;-60
2022/01/29 07:07:39;;;;;;;62.90;49.55;;;-5.00;96.30;-5.60;97265.00;;;;5062017;27;87483;-59
2022/01/29 07:10:06;;;;;;;62.70;50.17;;;-4.90;96.40;-5.60;97266.00;;;;5062385;27;87088;-59
2022/01/29 07:12:33;;;;;;;62.92;50.15;;;-4.90;96.30;-5.60;97268.00;;;;5058779;27;88808;-59
2022/01/29 07:15:00;;;;;;;67.43;51.25;;;-4.90;96.30;-5.60;97281.00;;;;5031923;27;89377;-59
2022/01/29 07:17:26;;;;;;;64.68;48.22;;;-4.90;96.30;-5.60;97268.00;;;;5062405;27;86897;-59
2022/01/29 07:19:52;;;;;;;64.22;49.95;;;-4.90;96.30;-5.50;97283.00;;;;5054624;27;87983;-60
2022/01/29 07:22:19;;;;;;;63.78;48.55;;;-4.80;96.40;-5.50;97280.00;;;;5028590;27;90395;-60
2022/01/29 07:24:49;;;;;;;59.33;48.08;;;-4.80;96.20;-5.40;97291.00;;;;5045987;27;87681;-59
2022/01/29 07:27:16;;;;;;;61.22;48.08;;;-4.70;96.30;-5.30;97288.00;;;;5061303;27;87035;-60
2022/01/29 07:29:42;;;;;;;64.68;50.72;;;-4.60;96.20;-5.30;97281.00;;;;5063164;27;86194;-60
2022/01/29 07:32:11;;;;;;;58.00;49.20;;;-4.60;95.90;-5.30;97289.00;;;;5057652;27;91178;-58
2022/01/29 07:34:37;;;;;;;60.13;49.25;;;-4.60;95.90;-5.20;97295.00;;;;5062236;27;88240;-59
2022/01/29 07:37:04;;;;;;;56.75;48.28;;;-4.60;96.20;-5.20;97283.00;;;;5029244;27;88050;-58
2022/01/29 07:39:31;;;;;;;59.50;47.70;;;-4.50;95.80;-5.20;97287.00;;;;5060084;27;87215;-60
2022/01/29 07:41:57;;;;;;;61.10;48.03;;;-4.50;95.60;-5.20;97270.00;;;;5061366;27;88137;-59
2022/01/29 07:44:24;;;;;;;58.05;47.15;;;-4.50;95.60;-5.10;97281.00;;;;5059756;27;87290;-60
2022/01/29 07:46:51;;;;;;;57.65;46.70;;;-4.40;95.70;-5.10;97287.00;;;;5057557;27;87027;-59
2022/01/29 07:49:17;;;;;;;55.28;46.00;;;-4.40;95.50;-5.00;97279.00;;;;5059308;27;87467;-59
2022/01/29 07:51:43;;;;;;;61.22;49.03;;;-4.30;95.60;-5.00;97275.00;;;;5046289;27;88011;-59
2022/01/29 07:54:10;;;;;;;58.13;47.00;;;-4.30;95.50;-4.90;97266.00;;;;5062099;27;87403;-59
2022/01/29 07:56:36;;;;;;;61.50;46.63;;;-4.20;95.40;-4.90;97273.00;;;;5061527;27;86983;-60
2022/01/29 07:59:03;;;;;;;59.83;48.88;;;-4.20;95.50;-4.70;97281.00;;;;5061634;27;87168;-59
2022/01/29 08:01:29;;;;;;;61.22;47.92;;;-4.00;95.50;-4.70;97271.00;;;;5061335;27;88355;-60
2022/01/29 08:03:55;;;;;;;63.75;48.83;;;-4.00;95.10;-4.60;97272.00;;;;5041561;27;88114;-60
2022/01/29 08:06:23;;;;;;;58.67;49.08;;;-3.90;95.10;-4.60;97263.00;;;;5041457;27;87037;-60
2022/01/29 08:08:50;;;;;;;63.00;48.50;;;-3.90;94.90;-4.60;97286.00;;;;5041014;27;87185;-61
2022/01/29 08:11:17;;;;;;;63.17;49.88;;;-3.80;94.90;-4.50;97283.00;;;;5038891;28;90229;-61
2022/01/29 08:13:46;;;;;;;56.83;47.50;;;-3.70;95.00;-4.40;97276.00;;;;5038762;28;87408;-59
2022/01/29 08:16:14;;;;;;;60.70;47.47;;;-3.70;94.80;-4.30;97276.00;;;;5040894;27;86992;-60
2022/01/29 08:18:42;;;;;;;54.42;46.72;;;-3.60;94.70;-4.20;97289.00;;;;5041370;27;86198;-59
2022/01/29 08:21:11;;;;;;;60.67;47.03;;;-3.50;94.70;-4.10;97285.00;;;;5057081;27;87001;-59
2022/01/29 08:23:37;;;;;;;64.80;48.20;;;-3.40;94.70;-4.00;97287.00;;;;5041318;27;87806;-59
2022/01/29 08:26:03;;;;;;;62.95;47.80;;;-3.30;94.70;-4.00;97265.00;;;;5040266;28;87942;-59
2022/01/29 08:28:29;;;;;;;59.08;46.22;;;-3.30;94.00;-4.00;97276.00;;;;5040661;27;86958;-60
2022/01/29 08:30:56;;;;;;;62.55;48.42;;;-3.30;94.00;-3.90;97284.00;;;;5030492;27;87957;-58
2022/01/29 08:33:22;;;;;;;60.45;46.95;;;-3.40;94.10;-3.90;97282.00;;;;5041205;27;87473;-60
2022/01/29 08:35:48;;;;;;;66.95;48.88;;;-3.30;94.30;-3.80;97281.00;;;;5039776;28;87087;-59
2022/01/29 08:38:15;;;;;;;59.72;48.20;;;-3.20;94.20;-3.60;97273.00;;;;5041322;28;86984;-60
2022/01/29 08:40:41;;;;;;;59.28;46.42;;;-3.00;94.00;-3.50;97285.00;;;;5040120;28;88352;-60
2022/01/29 08:43:09;;;;;;;53.88;45.25;;;-2.90;93.70;-3.40;97281.00;;;;5040828;27;88308;-57
2022/01/29 08:45:35;;;;;;;55.40;45.67;;;-2.70;93.60;-3.40;97285.00;;;;5041135;27;87125;-60
2022/01/29 08:48:01;;;;;;;54.67;45.85;;;-2.90;93.20;-3.40;97274.00;;;;5040972;27;87173;-62
2022/01/29 08:50:28;;;;;;;58.35;46.55;;;-2.80;93.50;-3.40;97282.00;;;;5039209;28;88771;-60
2022/01/29 08:52:54;;;;;;;55.75;46.00;;;-2.80;93.40;-3.40;97283.00;;;;5040638;28;88395;-60
2022/01/29 08:55:20;;;;;;;58.55;45.13;;;-2.80;93.60;-3.40;97285.00;;;;5040021;28;87503;-60
2022/01/29 08:57:46;;;;;;;59.50;48.85;;;-2.80;93.20;-3.30;97285.00;;;;5040452;27;87487;-60
2022/01/29 09:00:13;;;;;;;57.30;45.95;;;-2.80;93.50;-3.30;97285.00;;;;5040690;28;87776;-60
2022/01/29 09:02:40;;;;;;;55.05;46.15;;;-2.70;93.40;-3.30;97279.00;;;;5040873;27;87215;-60
2022/01/29 09:05:08;;;;;;;58.25;48.15;;;-2.70;93.10;-3.40;97287.00;;;;5060412;27;87091;-59
2022/01/29 09:07:34;;;;;;;59.05;45.47;;;-2.80;93.30;-3.50;97289.00;;;;5060947;27;86208;-60
2022/01/29 09:10:01;;;;;;;58.45;47.35;;;-3.00;93.60;-3.40;97285.00;;;;5060268;27;87733;-59
2022/01/29 09:12:30;;;;;;;56.78;47.13;;;-2.90;93.80;-3.40;97292.00;;;;5057007;27;87480;-59
2022/01/29 09:14:56;;;;;;;55.80;47.17;;;-3.00;93.70;-3.50;97290.00;;;;5059628;27;87965;-60
2022/01/29 09:17:23;;;;;;;58.17;48.63;;;-3.00;93.90;-3.50;97303.00;;;;5060687;27;87473;-60
2022/01/29 09:19:49;;;;;;;58.78;47.50;;;-3.00;93.80;-3.40;97302.00;;;;5051815;27;87783;-61
2022/01/29 09:22:15;;;;;;;61.75;49.35;;;-2.90;93.80;-3.40;97301.00;;;;5047892;27;88889;-59
2022/01/29 09:24:41;;;;;;;59.08;48.85;;;-2.80;93.80;-3.30;97303.00;;;;5059820;27;87009;-59
2022/01/29 09:27:07;;;;;;;62.80;48.15;;;-2.80;94.00;-3.20;97318.00;;;;5059715;27;87386;-59
2022/01/29 09:29:33;;;;;;;61.58;48.88;;;-2.70;93.60;-3.20;97311.00;;;;5059582;27;88759;-59
2022/01/29 09:32:00;;;;;;;60.58;49.13;;;-2.70;93.60;-3.20;97290.00;;;;5061021;27;87475;-59
2022/01/29 09:34:26;;;;;;;58.00;49.78;;;-2.60;93.70;-3.00;97303.00;;;;5059794;27;87360;-59
2022/01/29 09:36:52;;;;;;;60.53;48.15;;;-2.40;93.30;-2.80;97296.00;;;;5060557;27;86936;-59
2022/01/29 09:39:18;;;;;;;64.75;50.13;;;-2.30;93.00;-2.80;97314.00;;;;5059054;27;88581;-60
2022/01/29 09:41:45;;;;;;;62.33;50.00;;;-2.20;92.90;-2.90;97310.00;;;;5059852;27;88318;-60
2022/01/29 09:44:13;;;;;;;64.88;51.13;;;-2.40;93.10;-2.90;97293.00;;;;5059871;27;87063;-61
2022/01/29 09:46:41;;;;;;;60.95;49.85;;;-2.40;93.20;-2.80;97300.00;;;;5055895;27;87387;-61
2022/01/29 09:49:07;;;;;;;62.03;49.42;;;-2.30;93.30;-2.80;97306.00;;;;5060125;27;89397;-60
2022/01/29 09:51:38;;;;;;;63.17;50.08;;;-2.20;93.00;-2.70;97309.00;;;;5059883;27;87338;-60
2022/01/29 09:54:05;;;;;;;64.20;50.97;;;-2.20;93.00;-2.60;97309.00;;;;5060140;27;87101;-60
2022/01/29 09:56:32;;;;;;;63.15;49.67;;;-2.10;93.00;-2.50;97304.00;;;;5060507;27;86482;-59
2022/01/29 09:58:59;;;;;;;63.30;52.38;;;-2.00;93.00;-2.40;97291.00;;;;5049429;27;87578;-61
2022/01/29 10:01:25;;;;;;;62.97;51.83;;;-1.80;92.70;-2.30;97301.00;;;;5059806;27;88648;-60
2022/01/29 10:04:03;;;;;;;57.58;49.58;;;-1.70;92.50;-2.20;97310.00;;;;5059424;27;88288;-60
2022/01/29 10:06:30;;;;;;;61.20;51.00;;;-1.60;92.10;-2.30;97316.00;;;;5056274;27;86930;-60
2022/01/29 10:08:57;;;;;;;64.18;51.65;;;-1.70;92.10;-2.30;97327.00;;;;5059368;27;88682;-60
2022/01/29 10:11:27;;;;;;;66.30;54.15;;;-1.80;92.20;-2.30;97317.00;;;;5058594;27;88580;-58
2022/01/29 10:14:00;;;;;;;65.97;53.40;;;-1.90;92.50;-2.40;97305.00;;;;5058251;27;87115;-59
2022/01/29 10:16:29;;;;;;;65.40;53.55;;;-1.90;92.60;-2.40;97311.00;;;;5059619;27;87014;-60
2022/01/29 10:19:02;;;;;;;64.05;52.75;;;-1.90;92.80;-2.30;97304.00;;;;5059102;27;88278;-59
2022/01/29 10:21:36;;;;;;;67.25;54.13;;;-1.90;92.70;-2.40;97306.00;;;;5059755;27;87159;-60
2022/01/29 10:24:08;;;;;;;65.88;51.78;;;-1.90;93.00;-2.30;97307.00;;;;5060433;27;87136;-60
2022/01/29 10:26:39;;;;;;;61.83;52.60;;;-1.80;93.10;-2.20;97304.00;;;;5059346;27;87321;-59
2022/01/29 10:29:09;;;;;;;61.42;50.53;;;-1.70;92.60;-2.10;97304.00;;;;5058084;27;88999;-60
2022/01/29 10:31:57;;;;;;;62.25;51.10;;;-1.60;92.30;-2.10;97311.00;;;;5050374;27;88391;-59
2022/01/29 10:34:27;;;;;;;67.22;52.90;;;-1.70;92.40;-2.10;97304.00;;;;5057258;27;87002;-59
2022/01/29 10:37:15;;;;;;;62.20;52.05;;;-1.60;92.70;-2.00;97304.00;;;;5059589;27;87447;-59
2022/01/29 10:39:44;;;;;;;64.93;50.95;;;-1.50;92.40;-2.00;97300.00;;;;5052343;27;88549;-60
2022/01/29 10:42:35;;;;;;;64.72;50.97;;;-1.40;92.10;-2.00;97306.00;;;;5061181;27;87400;-60
2022/01/29 10:45:06;;;;;;;65.45;50.70;;;-1.40;92.00;-2.00;97306.00;;;;5054270;27;87961;-59
2022/01/29 10:47:57;;;;;;;61.75;49.58;;;-1.60;92.20;-1.90;97308.00;;;;5052264;27;86606;-60
2022/01/29 10:50:24;;;;;;;66.70;52.75;;;-1.40;92.20;-1.80;97310.00;;;;5056709;27;88665;-60
2022/01/29 10:52:51;;;;;;;62.38;50.55;;;-1.30;91.90;-1.90;97299.00;;;;5062801;27;87265;-61
2022/01/29 10:55:18;;;;;;;70.78;51.65;;;-1.40;91.90;-1.90;97308.00;;;;5062431;27;88197;-62
2022/01/29 10:57:47;;;;;;;70.60;54.75;;;-1.50;92.30;-1.90;97298.00;;;;5062982;27;87622;-59